TXKF/BDA METAR and TAF weather

Enter ICAO airport designator
Station Type Date Time Source
TXKF METAR 2022/10/01 07:55 UTC NOAA

TXKF 010755Z 13007KT 9999 FEW008 FEW300 26/25 Q1017


Station Type Date Time Source
TXKF Decoded METAR 2022/10/01 07:55 UTC NOAA

Bermuda, Bermuda (TXKF) 32-22N 064-41W
Oct 01, 2022 - 03:55 AM EDT / 2022.10.01 0755 UTC
Wind: from the SE (130 degrees) at 8 MPH (7 KT):0
Visibility: greater than 7 mile(s):0
Sky conditions: mostly clear
Temperature: 78 F (26 C)
Dew Point: 77 F (25 C)
Relative Humidity: 94%
Pressure (altimeter): 30.03 in. Hg (1017 hPa)
ob: TXKF 010755Z 13007KT 9999 FEW008 FEW300 26/25 Q1017
cycle: 8

Station Type Date Time Source
TXKF TAF 2022/10/01 06:43 UTC NOAA

TAF TXKF 010535Z 0106/0206 15010KT 9999 VCSH FEW010 SCT300

Example: see airport list